createdAt,value
2023-04-01T00:02:37.823Z,15.09
2023-04-01T00:07:58.040Z,15.15
2023-04-01T00:13:05.345Z,15.16
2023-04-01T00:18:10.877Z,15.11
2023-04-01T00:23:17.667Z,15.14
2023-04-01T00:28:35.123Z,15.19
2023-04-01T00:33:52.596Z,15.19
2023-04-01T00:39:01.937Z,15.16
2023-04-01T00:44:23.928Z,15.40
2023-04-01T00:49:34.652Z,15.15
2023-04-01T00:54:42.575Z,15.24
2023-04-01T01:00:02.484Z,15.27
2023-04-01T01:05:11.053Z,15.19
2023-04-01T01:10:21.342Z,15.32
2023-04-01T01:15:28.885Z,15.24
2023-04-01T01:20:56.184Z,15.24
2023-04-01T01:26:21.191Z,15.18
2023-04-01T01:31:41.142Z,15.20
2023-04-01T01:37:05.615Z,15.19
2023-04-01T01:42:12.045Z,15.19
2023-04-01T01:47:17.619Z,15.13
2023-04-01T01:52:25.187Z,15.20
2023-04-01T01:57:36.622Z,15.23
2023-04-01T02:02:42.092Z,15.35
2023-04-01T02:08:01.584Z,15.17
2023-04-01T02:13:14.534Z,15.32
2023-04-01T02:18:21.262Z,15.16
2023-04-01T02:23:31.234Z,15.15
2023-04-01T02:28:42.334Z,15.18
2023-04-01T02:33:46.192Z,15.26
2023-04-01T02:38:55.669Z,15.25
2023-04-01T02:44:01.261Z,15.19
2023-04-01T02:49:10.398Z,15.32
2023-04-01T02:54:18.093Z,15.37
2023-04-01T02:59:21.264Z,15.36
2023-04-01T03:04:26.296Z,15.26
2023-04-01T03:09:42.430Z,15.16
2023-04-01T03:14:58.774Z,15.12
2023-04-01T03:20:17.574Z,15.29
2023-04-01T03:25:22.381Z,15.24
2023-04-01T03:30:29.663Z,15.23
2023-04-01T03:35:38.230Z,15.22
2023-04-01T03:40:49.714Z,15.18
2023-04-01T03:46:02.287Z,15.18
2023-04-01T03:51:12.064Z,15.22
2023-04-01T03:56:18.542Z,15.19
2023-04-01T04:01:32.311Z,15.20
2023-04-01T04:06:37.928Z,15.12
2023-04-01T04:12:00.944Z,15.12
2023-04-01T04:17:10.652Z,15.03
2023-04-01T04:22:31.315Z,15.09
2023-04-01T04:27:39.026Z,15.08
2023-04-01T04:32:44.922Z,15.13
2023-04-01T04:37:56.782Z,15.07
2023-04-01T04:43:01.328Z,15.16
2023-04-01T04:48:06.737Z,15.15
2023-04-01T04:53:16.092Z,15.11
2023-04-01T04:58:27.529Z,14.96
2023-04-01T05:56:03.014Z,15.19
2023-04-01T06:01:22.046Z,15.18
2023-04-01T06:06:29.338Z,15.21
2023-04-01T06:11:56.590Z,15.10
2023-04-01T06:17:19.188Z,15.10
2023-04-01T06:22:54.634Z,15.11
2023-04-01T06:28:08.888Z,14.99
2023-04-01T06:33:31.269Z,15.03
2023-04-01T06:39:09.695Z,14.96
2023-04-01T06:44:28.514Z,15.03
2023-04-01T06:49:52.912Z,15.21
2023-04-01T06:55:02.382Z,15.13
2023-04-01T07:00:28.491Z,15.07
2023-04-01T07:05:34.890Z,14.87
2023-04-01T07:10:52.996Z,14.93
2023-04-01T07:16:13.253Z,14.81
2023-04-01T07:21:27.897Z,14.96
2023-04-01T07:26:41.232Z,15.02
2023-04-01T07:32:36.195Z,14.92
2023-04-01T07:37:53.487Z,15.07
2023-04-01T07:43:26.509Z,15.06
2023-04-01T07:48:40.517Z,15.11
2023-04-01T07:53:51.281Z,15.11
2023-04-01T07:59:07.979Z,15.27
2023-04-01T08:04:43.796Z,15.60
2023-04-01T08:10:03.801Z,15.34
2023-04-01T08:15:17.556Z,15.46
2023-04-01T08:20:35.506Z,15.75
2023-04-01T08:26:03.985Z,16.07
2023-04-01T08:31:11.842Z,15.82
2023-04-01T08:36:27.314Z,15.93
2023-04-01T08:42:09.423Z,15.98
2023-04-01T08:47:28.860Z,16.15
2023-04-01T08:52:53.452Z,16.27
2023-04-01T08:58:13.517Z,16.42
2023-04-01T09:03:48.462Z,16.60
2023-04-01T09:09:20.498Z,16.21
2023-04-01T09:14:40.670Z,16.34
2023-04-01T09:20:07.345Z,16.47
2023-04-01T09:25:39.666Z,16.43
2023-04-01T09:31:23.563Z,16.40
2023-04-01T09:36:48.280Z,16.33
2023-04-01T09:42:16.719Z,16.36
2023-04-01T09:47:41.500Z,16.48
2023-04-01T09:52:52.525Z,16.73
2023-04-01T09:58:51.179Z,16.63
2023-04-01T10:04:19.241Z,16.78
2023-04-01T10:10:08.844Z,16.63
2023-04-01T10:16:10.447Z,16.58
2023-04-01T10:21:35.125Z,16.75
2023-04-01T10:27:06.817Z,16.87
2023-04-01T10:32:57.980Z,16.96
2023-04-01T10:38:45.533Z,16.97
2023-04-01T10:44:24.923Z,16.99
2023-04-01T10:50:05.059Z,17.01
2023-04-01T10:55:36.673Z,17.12
2023-04-01T11:01:05.944Z,16.96
2023-04-01T11:06:42.182Z,17.05
2023-04-01T11:12:26.127Z,17.38
2023-04-01T11:18:16.742Z,17.57
2023-04-01T11:24:02.225Z,17.47
2023-04-01T11:29:56.633Z,17.76
2023-04-01T11:35:25.145Z,18.27
2023-04-01T11:40:46.584Z,18.45
2023-04-01T11:46:25.397Z,18.38
2023-04-01T12:37:03.007Z,20.52
2023-04-01T12:42:16.527Z,20.55
2023-04-01T12:47:59.102Z,20.44
2023-04-01T12:53:50.660Z,20.12
2023-04-01T12:59:26.242Z,20.35
2023-04-01T13:05:05.730Z,20.24
2023-04-01T13:10:45.574Z,20.35
2023-04-01T13:15:55.469Z,19.67
2023-04-01T13:21:12.976Z,19.02
2023-04-01T13:26:25.202Z,18.70
2023-04-01T13:31:56.426Z,18.65
2023-04-01T13:37:30.325Z,18.36
2023-04-01T13:42:42.372Z,18.52
2023-04-01T13:48:17.383Z,18.31
2023-04-01T13:53:37.796Z,18.48
2023-04-01T13:59:02.326Z,18.19
2023-04-01T14:04:44.700Z,18.33
2023-04-01T14:10:01.957Z,18.43
2023-04-01T14:15:32.213Z,18.48
2023-04-01T14:20:53.080Z,18.08
2023-04-01T14:26:50.104Z,18.19
2023-04-01T14:32:12.198Z,18.26
2023-04-01T14:38:01.401Z,18.48
2023-04-01T14:43:32.532Z,18.70
2023-04-01T14:48:41.303Z,18.47
2023-04-01T14:53:57.004Z,18.52
2023-04-01T14:59:09.312Z,18.60
2023-04-01T15:04:45.832Z,18.58
2023-04-01T15:10:01.154Z,18.44
2023-04-01T15:15:22.528Z,18.56
2023-04-01T16:25:20.195Z,18.69
2023-04-01T16:30:47.391Z,18.77
2023-04-01T16:35:59.616Z,19.00
2023-04-01T16:41:18.550Z,19.01
2023-04-01T16:46:45.807Z,19.16
2023-04-01T16:52:07.097Z,19.42
2023-04-01T16:57:29.241Z,19.33
2023-04-01T17:02:40.651Z,19.33
2023-04-01T17:07:57.190Z,19.11
2023-04-01T17:13:32.758Z,19.01
2023-04-01T17:18:46.606Z,19.01
2023-04-01T17:23:53.821Z,18.95
2023-04-01T17:29:03.331Z,18.67
2023-04-01T17:34:26.017Z,18.71
2023-04-01T17:39:46.384Z,18.81
2023-04-01T17:45:07.753Z,18.65
2023-04-01T17:50:28.114Z,18.65
2023-04-01T17:55:46.505Z,18.71
2023-04-01T18:01:23.512Z,18.76
2023-04-01T18:06:39.834Z,18.65
2023-04-01T18:11:55.124Z,18.40
2023-04-01T18:17:15.073Z,18.13
2023-04-01T18:22:23.267Z,18.02
2023-04-01T18:27:48.482Z,17.76
2023-04-01T18:32:58.873Z,17.53
2023-04-01T18:38:08.602Z,17.38
2023-04-01T18:43:38.670Z,17.26
2023-04-01T18:48:53.870Z,17.19
2023-04-01T18:54:01.444Z,16.96
2023-04-01T18:59:11.005Z,16.77
2023-04-01T19:04:40.764Z,16.63
2023-04-01T19:09:52.120Z,16.53
2023-04-01T19:15:11.391Z,16.48
2023-04-01T19:20:25.357Z,16.40
2023-04-01T19:25:40.485Z,16.26
2023-04-01T19:30:56.663Z,16.14
2023-04-01T19:36:12.524Z,16.14
2023-04-01T19:41:44.897Z,15.91
2023-04-01T19:46:52.985Z,15.98
2023-04-01T19:52:06.482Z,15.75
2023-04-01T19:57:20.842Z,15.76
2023-04-01T20:02:43.455Z,15.60
2023-04-01T20:08:05.210Z,15.46
2023-04-01T20:13:19.518Z,15.36
2023-04-01T20:18:35.227Z,15.45
2023-04-01T20:23:52.219Z,15.64
2023-04-01T20:29:22.320Z,15.79
2023-04-01T20:34:58.868Z,15.65
2023-04-01T20:40:36.351Z,15.80
2023-04-01T20:45:50.135Z,15.93
2023-04-01T20:50:56.922Z,16.03
2023-04-01T20:56:33.046Z,15.90
2023-04-01T21:01:46.105Z,15.91
2023-04-01T21:07:21.742Z,15.82
2023-04-01T21:12:40.117Z,15.58
2023-04-01T21:18:00.556Z,15.45
2023-04-01T21:23:22.657Z,15.35
2023-04-01T21:28:44.572Z,15.44
2023-04-01T21:34:07.002Z,15.22
2023-04-01T21:39:30.299Z,15.00
2023-04-01T21:45:01.016Z,15.08
2023-04-01T21:50:46.727Z,14.79
2023-04-01T21:56:24.398Z,14.76
2023-04-01T22:02:15.973Z,14.62
2023-04-01T22:07:46.767Z,14.75
2023-04-01T22:12:57.126Z,14.67
2023-04-01T22:18:10.708Z,14.53
2023-04-01T22:23:32.381Z,14.31
2023-04-01T22:28:48.650Z,14.26
2023-04-01T22:34:35.551Z,14.17
2023-04-01T22:40:02.157Z,14.26
2023-04-01T22:45:26.256Z,14.29
2023-04-01T22:50:41.067Z,14.21
2023-04-01T22:55:53.787Z,14.09
2023-04-01T23:01:11.795Z,13.88
2023-04-01T23:06:30.619Z,14.02
2023-04-01T23:11:37.980Z,14.01
2023-04-01T23:16:48.304Z,13.96
2023-04-01T23:22:01.382Z,13.77
2023-04-01T23:27:11.955Z,13.79
2023-04-01T23:32:22.281Z,13.76
2023-04-01T23:37:29.544Z,13.86
2023-04-01T23:42:36.242Z,13.93
2023-04-01T23:47:46.235Z,13.60
2023-04-01T23:52:58.125Z,13.26
2023-04-01T23:58:16.439Z,13.26
